Aviation Digital Data Service (ADDS)

Output produced by METARs form (1239 UTC 19 January 2019)
found at http://www.aviationweather.gov/metar/data/
 
METAR text: WIBB 191230Z 04004KT 8000 FEW013 28/22 Q1008
Conditions at: WIBB (PAKANBARU/SIMPAN, ID) observed 1230 UTC 19 January 2019
Temperature: 28.0°C (82°F)
Dewpoint: 22.0°C (72°F) [RH = 70%]
Pressure (altimeter): 29.76 inches Hg (1008.0 mb)
Winds: from the NE (40 degrees) at 5 MPH (4 knots; 2.1 m/s)
Visibility: 5 miles ( 8 km)
Ceiling: at least 12,000 feet AGL
Clouds: few clouds at 1300 feet AGL
Weather: no significant weather observed at this time

METAR text: WIBB 191200Z 04005KT 8000 FEW013 28/22 Q1007
Conditions at: WIBB (PAKANBARU/SIMPAN, ID) observed 1200 UTC 19 January 2019
Temperature: 28.0°C (82°F)
Dewpoint: 22.0°C (72°F) [RH = 70%]
Pressure (altimeter): 29.73 inches Hg (1007.0 mb)
Winds: from the NE (40 degrees) at 6 MPH (5 knots; 2.6 m/s)
Visibility: 5 miles ( 8 km)
Ceiling: at least 12,000 feet AGL
Clouds: few clouds at 1300 feet AGL
Weather: no significant weather observed at this time

METAR text: WIBB 191100Z 02007KT 8000 FEW013 30/22 Q1007
Conditions at: WIBB (PAKANBARU/SIMPAN, ID) observed 1100 UTC 19 January 2019
Temperature: 30.0°C (86°F)
Dewpoint: 22.0°C (72°F) [RH = 62%]
Pressure (altimeter): 29.73 inches Hg (1007.0 mb)
Winds: from the NNE (20 degrees) at 8 MPH (7 knots; 3.6 m/s)
Visibility: 5 miles ( 8 km)
Ceiling: at least 12,000 feet AGL
Clouds: few clouds at 1300 feet AGL
Weather: no significant weather observed at this time

METAR text: WIBB 191030Z 02005KT 8000 FEW013 31/21 Q1006
Conditions at: WIBB (PAKANBARU/SIMPAN, ID) observed 1030 UTC 19 January 2019
Temperature: 31.0°C (88°F)
Dewpoint: 21.0°C (70°F) [RH = 55%]
Pressure (altimeter): 29.70 inches Hg (1006.0 mb)
Winds: from the NNE (20 degrees) at 6 MPH (5 knots; 2.6 m/s)
Visibility: 5 miles ( 8 km)
Ceiling: at least 12,000 feet AGL
Clouds: few clouds at 1300 feet AGL
Weather: no significant weather observed at this time

METAR text: WIBB 190930Z 36007KT 9000 SCT013 32/21 Q1006
Conditions at: WIBB (PAKANBARU/SIMPAN, ID) observed 0930 UTC 19 January 2019
Temperature: 32.0°C (90°F)
Dewpoint: 21.0°C (70°F) [RH = 52%]
Pressure (altimeter): 29.70 inches Hg (1006.0 mb)
Winds: from the N (360 degrees) at 8 MPH (7 knots; 3.6 m/s)
Visibility: 6 miles ( 9 km)
Ceiling: at least 12,000 feet AGL
Clouds: scattered clouds at 1300 feet AGL
Weather: no significant weather observed at this time

METAR text: WIBB 190900Z 36007KT 9000 SCT013 32/21 Q1006
Conditions at: WIBB (PAKANBARU/SIMPAN, ID) observed 0900 UTC 19 January 2019
Temperature: 32.0°C (90°F)
Dewpoint: 21.0°C (70°F) [RH = 52%]
Pressure (altimeter): 29.70 inches Hg (1006.0 mb)
Winds: from the N (360 degrees) at 8 MPH (7 knots; 3.6 m/s)
Visibility: 6 miles ( 9 km)
Ceiling: at least 12,000 feet AGL
Clouds: scattered clouds at 1300 feet AGL
Weather: no significant weather observed at this time

METAR text: WIBB 190830Z 04006KT 8000 BKN013 31/21 Q1006
Conditions at: WIBB (PAKANBARU/SIMPAN, ID) observed 0830 UTC 19 January 2019
Temperature: 31.0°C (88°F)
Dewpoint: 21.0°C (70°F) [RH = 55%]
Pressure (altimeter): 29.70 inches Hg (1006.0 mb)
Winds: from the NE (40 degrees) at 7 MPH (6 knots; 3.1 m/s)
Visibility: 5 miles ( 8 km)
Ceiling: 1300 feet AGL
Clouds: broken clouds at 1300 feet AGL
Weather: no significant weather observed at this time

METAR text: WIBB 190800Z 05006KT 9999 SCT015 31/22 Q1007
Conditions at: WIBB (PAKANBARU/SIMPAN, ID) observed 0800 UTC 19 January 2019
Temperature: 31.0°C (88°F)
Dewpoint: 22.0°C (72°F) [RH = 59%]
Pressure (altimeter): 29.73 inches Hg (1007.0 mb)
Winds: from the NE (50 degrees) at 7 MPH (6 knots; 3.1 m/s)
Visibility: 6 or more miles (10+ km)
Ceiling: at least 12,000 feet AGL
Clouds: scattered clouds at 1500 feet AGL
Weather: no significant weather observed at this time

METAR text: WIBB 190730Z 36008KT 9999 SCT015 32/21 Q1007
Conditions at: WIBB (PAKANBARU/SIMPAN, ID) observed 0730 UTC 19 January 2019
Temperature: 32.0°C (90°F)
Dewpoint: 21.0°C (70°F) [RH = 52%]
Pressure (altimeter): 29.73 inches Hg (1007.0 mb)
Winds: from the N (360 degrees) at 9 MPH (8 knots; 4.1 m/s)
Visibility: 6 or more miles (10+ km)
Ceiling: at least 12,000 feet AGL
Clouds: scattered clouds at 1500 feet AGL
Weather: no significant weather observed at this time

METAR text: WIBB 190700Z 35010KT 9999 FEW015 32/22 Q1007
Conditions at: WIBB (PAKANBARU/SIMPAN, ID) observed 0700 UTC 19 January 2019
Temperature: 32.0°C (90°F)
Dewpoint: 22.0°C (72°F) [RH = 56%]
Pressure (altimeter): 29.73 inches Hg (1007.0 mb)
Winds: from the N (350 degrees) at 12 MPH (10 knots; 5.1 m/s)
Visibility: 6 or more miles (10+ km)
Ceiling: at least 12,000 feet AGL
Clouds: few clouds at 1500 feet AGL
Weather: no significant weather observed at this time

METAR text: WIBB 190630Z 02008KT 9999 SCT015 31/21 Q1008
Conditions at: WIBB (PAKANBARU/SIMPAN, ID) observed 0630 UTC 19 January 2019
Temperature: 31.0°C (88°F)
Dewpoint: 21.0°C (70°F) [RH = 55%]
Pressure (altimeter): 29.76 inches Hg (1008.0 mb)
Winds: from the NNE (20 degrees) at 9 MPH (8 knots; 4.1 m/s)
Visibility: 6 or more miles (10+ km)
Ceiling: at least 12,000 feet AGL
Clouds: scattered clouds at 1500 feet AGL
Weather: no significant weather observed at this time

METAR text: WIBB 190600Z 03006KT 9999 SCT015 31/22 Q1008
Conditions at: WIBB (PAKANBARU/SIMPAN, ID) observed 0600 UTC 19 January 2019
Temperature: 31.0°C (88°F)
Dewpoint: 22.0°C (72°F) [RH = 59%]
Pressure (altimeter): 29.76 inches Hg (1008.0 mb)
Winds: from the NNE (30 degrees) at 7 MPH (6 knots; 3.1 m/s)
Visibility: 6 or more miles (10+ km)
Ceiling: at least 12,000 feet AGL
Clouds: scattered clouds at 1500 feet AGL
Weather: no significant weather observed at this time

METAR text: WIBB 190530Z 01008KT 9999 SCT013 31/22 Q1009
Conditions at: WIBB (PAKANBARU/SIMPAN, ID) observed 0530 UTC 19 January 2019
Temperature: 31.0°C (88°F)
Dewpoint: 22.0°C (72°F) [RH = 59%]
Pressure (altimeter): 29.79 inches Hg (1009.0 mb)
Winds: from the N (10 degrees) at 9 MPH (8 knots; 4.1 m/s)
Visibility: 6 or more miles (10+ km)
Ceiling: at least 12,000 feet AGL
Clouds: scattered clouds at 1300 feet AGL
Weather: no significant weather observed at this time

METAR text: WIBB 190500Z 03009KT 9999 SCT013 30/21 Q1009
Conditions at: WIBB (PAKANBARU/SIMPAN, ID) observed 0500 UTC 19 January 2019
Temperature: 30.0°C (86°F)
Dewpoint: 21.0°C (70°F) [RH = 59%]
Pressure (altimeter): 29.79 inches Hg (1009.0 mb)
Winds: from the NNE (30 degrees) at 10 MPH (9 knots; 4.6 m/s)
Visibility: 6 or more miles (10+ km)
Ceiling: at least 12,000 feet AGL
Clouds: scattered clouds at 1300 feet AGL
Weather: no significant weather observed at this time

METAR text: WIBB 190430Z 02007KT 9999 SCT013 30/22 Q1009
Conditions at: WIBB (PAKANBARU/SIMPAN, ID) observed 0430 UTC 19 January 2019
Temperature: 30.0°C (86°F)
Dewpoint: 22.0°C (72°F) [RH = 62%]
Pressure (altimeter): 29.79 inches Hg (1009.0 mb)
Winds: from the NNE (20 degrees) at 8 MPH (7 knots; 3.6 m/s)
Visibility: 6 or more miles (10+ km)
Ceiling: at least 12,000 feet AGL
Clouds: scattered clouds at 1300 feet AGL
Weather: no significant weather observed at this time

METAR text: WIBB 190400Z 04008KT 9999 SCT013 30/22 Q1010
Conditions at: WIBB (PAKANBARU/SIMPAN, ID) observed 0400 UTC 19 January 2019
Temperature: 30.0°C (86°F)
Dewpoint: 22.0°C (72°F) [RH = 62%]
Pressure (altimeter): 29.82 inches Hg (1010.0 mb)
Winds: from the NE (40 degrees) at 9 MPH (8 knots; 4.1 m/s)
Visibility: 6 or more miles (10+ km)
Ceiling: at least 12,000 feet AGL
Clouds: scattered clouds at 1300 feet AGL
Weather: no significant weather observed at this time

METAR text: WIBB 190330Z 04007KT 9999 SCT013 29/23 Q1010
Conditions at: WIBB (PAKANBARU/SIMPAN, ID) observed 0330 UTC 19 January 2019
Temperature: 29.0°C (84°F)
Dewpoint: 23.0°C (73°F) [RH = 70%]
Pressure (altimeter): 29.82 inches Hg (1010.0 mb)
Winds: from the NE (40 degrees) at 8 MPH (7 knots; 3.6 m/s)
Visibility: 6 or more miles (10+ km)
Ceiling: at least 12,000 feet AGL
Clouds: scattered clouds at 1300 feet AGL
Weather: no significant weather observed at this time

METAR text: WIBB 190300Z 02009KT 9999 SCT013 29/23 Q1010
Conditions at: WIBB (PAKANBARU/SIMPAN, ID) observed 0300 UTC 19 January 2019
Temperature: 29.0°C (84°F)
Dewpoint: 23.0°C (73°F) [RH = 70%]
Pressure (altimeter): 29.82 inches Hg (1010.0 mb)
Winds: from the NNE (20 degrees) at 10 MPH (9 knots; 4.6 m/s)
Visibility: 6 or more miles (10+ km)
Ceiling: at least 12,000 feet AGL
Clouds: scattered clouds at 1300 feet AGL
Weather: no significant weather observed at this time

METAR text: WIBB 190230Z 04006KT 9999 FEW015 28/23 Q1010
Conditions at: WIBB (PAKANBARU/SIMPAN, ID) observed 0230 UTC 19 January 2019
Temperature: 28.0°C (82°F)
Dewpoint: 23.0°C (73°F) [RH = 74%]
Pressure (altimeter): 29.82 inches Hg (1010.0 mb)
Winds: from the NE (40 degrees) at 7 MPH (6 knots; 3.1 m/s)
Visibility: 6 or more miles (10+ km)
Ceiling: at least 12,000 feet AGL
Clouds: few clouds at 1500 feet AGL
Weather: no significant weather observed at this time

METAR text: WIBB 190200Z 04005KT 9999 FEW015 27/23 Q1010
Conditions at: WIBB (PAKANBARU/SIMPAN, ID) observed 0200 UTC 19 January 2019
Temperature: 27.0°C (81°F)
Dewpoint: 23.0°C (73°F) [RH = 79%]
Pressure (altimeter): 29.82 inches Hg (1010.0 mb)
Winds: from the NE (40 degrees) at 6 MPH (5 knots; 2.6 m/s)
Visibility: 6 or more miles (10+ km)
Ceiling: at least 12,000 feet AGL
Clouds: few clouds at 1500 feet AGL
Weather: no significant weather observed at this time

METAR text: WIBB 190100Z 00000KT 8000 FEW015 26/24 Q1010
Conditions at: WIBB (PAKANBARU/SIMPAN, ID) observed 0100 UTC 19 January 2019
Temperature: 26.0°C (79°F)
Dewpoint: 24.0°C (75°F) [RH = 89%]
Pressure (altimeter): 29.82 inches Hg (1010.0 mb)
Winds: calm
Visibility: 5 miles ( 8 km)
Ceiling: at least 12,000 feet AGL
Clouds: few clouds at 1500 feet AGL
Weather: no significant weather observed at this time

METAR text: WIBB 190030Z 00000KT 7000 NSC 24/24 Q1009
Conditions at: WIBB (PAKANBARU/SIMPAN, ID) observed 0030 UTC 19 January 2019
Temperature: 24.0°C (75°F)
Dewpoint: 24.0°C (75°F) [RH = 100%]
Pressure (altimeter): 29.79 inches Hg (1009.0 mb)
Winds: calm
Visibility: 4 miles ( 7 km)
Ceiling: at least 12,000 feet AGL
Clouds: sky clear below 12,000 feet AGL
Weather: no significant weather observed at this time

METAR text: WIBB 190000Z 00000KT 6000 FEW015 23/23 Q1009
Conditions at: WIBB (PAKANBARU/SIMPAN, ID) observed 0000 UTC 19 January 2019
Temperature: 23.0°C (73°F)
Dewpoint: 23.0°C (73°F) [RH = 100%]
Pressure (altimeter): 29.79 inches Hg (1009.0 mb)
Winds: calm
Visibility: 4 miles ( 6 km)
Ceiling: at least 12,000 feet AGL
Clouds: few clouds at 1500 feet AGL
Weather: no significant weather observed at this time

METAR text: WIBB 182330Z 00000KT 5000 HZ FEW015 23/23 Q1008
Conditions at: WIBB (PAKANBARU/SIMPAN, ID) observed 2330 UTC 18 January 2019
Temperature: 23.0°C (73°F)
Dewpoint: 23.0°C (73°F) [RH = 100%]
Pressure (altimeter): 29.76 inches Hg (1008.0 mb)
Winds: calm
Visibility: 3 miles ( 5 km)
Ceiling: at least 12,000 feet AGL
Clouds: few clouds at 1500 feet AGL
Weather: HZ  (haze)

METAR text: WIBB 182300Z 00000KT 6000 NSC 23/23 Q1008
Conditions at: WIBB (PAKANBARU/SIMPAN, ID) observed 2300 UTC 18 January 2019
Temperature: 23.0°C (73°F)
Dewpoint: 23.0°C (73°F) [RH = 100%]
Pressure (altimeter): 29.76 inches Hg (1008.0 mb)
Winds: calm
Visibility: 4 miles ( 6 km)
Ceiling: at least 12,000 feet AGL
Clouds: sky clear below 12,000 feet AGL
Weather: no significant weather observed at this time

METAR text: WIBB 182100Z 00000KT 7000 NSC 23/23 Q1008
Conditions at: WIBB (PAKANBARU/SIMPAN, ID) observed 2100 UTC 18 January 2019
Temperature: 23.0°C (73°F)
Dewpoint: 23.0°C (73°F) [RH = 100%]
Pressure (altimeter): 29.76 inches Hg (1008.0 mb)
Winds: calm
Visibility: 4 miles ( 7 km)
Ceiling: at least 12,000 feet AGL
Clouds: sky clear below 12,000 feet AGL
Weather: no significant weather observed at this time

METAR text: WIBB 181900Z 00000KT 7000 NSC 24/24 Q1009
Conditions at: WIBB (PAKANBARU/SIMPAN, ID) observed 1900 UTC 18 January 2019
Temperature: 24.0°C (75°F)
Dewpoint: 24.0°C (75°F) [RH = 100%]
Pressure (altimeter): 29.79 inches Hg (1009.0 mb)
Winds: calm
Visibility: 4 miles ( 7 km)
Ceiling: at least 12,000 feet AGL
Clouds: sky clear below 12,000 feet AGL
Weather: no significant weather observed at this time

METAR text: WIBB 181800Z 00000KT 7000 NSC 24/24 Q1009
Conditions at: WIBB (PAKANBARU/SIMPAN, ID) observed 1800 UTC 18 January 2019
Temperature: 24.0°C (75°F)
Dewpoint: 24.0°C (75°F) [RH = 100%]
Pressure (altimeter): 29.79 inches Hg (1009.0 mb)
Winds: calm
Visibility: 4 miles ( 7 km)
Ceiling: at least 12,000 feet AGL
Clouds: sky clear below 12,000 feet AGL
Weather: no significant weather observed at this time

METAR text: WIBB 181730Z 00000KT 7000 NSC 24/24 Q1010
Conditions at: WIBB (PAKANBARU/SIMPAN, ID) observed 1730 UTC 18 January 2019
Temperature: 24.0°C (75°F)
Dewpoint: 24.0°C (75°F) [RH = 100%]
Pressure (altimeter): 29.82 inches Hg (1010.0 mb)
Winds: calm
Visibility: 4 miles ( 7 km)
Ceiling: at least 12,000 feet AGL
Clouds: sky clear below 12,000 feet AGL
Weather: no significant weather observed at this time

METAR text: WIBB 181700Z 00000KT 7000 NSC 24/24 Q1010
Conditions at: WIBB (PAKANBARU/SIMPAN, ID) observed 1700 UTC 18 January 2019
Temperature: 24.0°C (75°F)
Dewpoint: 24.0°C (75°F) [RH = 100%]
Pressure (altimeter): 29.82 inches Hg (1010.0 mb)
Winds: calm
Visibility: 4 miles ( 7 km)
Ceiling: at least 12,000 feet AGL
Clouds: sky clear below 12,000 feet AGL
Weather: no significant weather observed at this time

METAR text: WIBB 181600Z 00000KT 8000 NSC 25/24 Q1010
Conditions at: WIBB (PAKANBARU/SIMPAN, ID) observed 1600 UTC 18 January 2019
Temperature: 25.0°C (77°F)
Dewpoint: 24.0°C (75°F) [RH = 94%]
Pressure (altimeter): 29.82 inches Hg (1010.0 mb)
Winds: calm
Visibility: 5 miles ( 8 km)
Ceiling: at least 12,000 feet AGL
Clouds: sky clear below 12,000 feet AGL
Weather: no significant weather observed at this time

METAR text: WIBB 181500Z 00000KT 8000 NSC 25/24 Q1010
Conditions at: WIBB (PAKANBARU/SIMPAN, ID) observed 1500 UTC 18 January 2019
Temperature: 25.0°C (77°F)
Dewpoint: 24.0°C (75°F) [RH = 94%]
Pressure (altimeter): 29.82 inches Hg (1010.0 mb)
Winds: calm
Visibility: 5 miles ( 8 km)
Ceiling: at least 12,000 feet AGL
Clouds: sky clear below 12,000 feet AGL
Weather: no significant weather observed at this time

METAR text: WIBB 181430Z 00000KT 8000 NSC 25/24 Q1009
Conditions at: WIBB (PAKANBARU/SIMPAN, ID) observed 1430 UTC 18 January 2019
Temperature: 25.0°C (77°F)
Dewpoint: 24.0°C (75°F) [RH = 94%]
Pressure (altimeter): 29.79 inches Hg (1009.0 mb)
Winds: calm
Visibility: 5 miles ( 8 km)
Ceiling: at least 12,000 feet AGL
Clouds: sky clear below 12,000 feet AGL
Weather: no significant weather observed at this time

METAR text: WIBB 181400Z 00000KT 8000 NSC 25/24 Q1009
Conditions at: WIBB (PAKANBARU/SIMPAN, ID) observed 1400 UTC 18 January 2019
Temperature: 25.0°C (77°F)
Dewpoint: 24.0°C (75°F) [RH = 94%]
Pressure (altimeter): 29.79 inches Hg (1009.0 mb)
Winds: calm
Visibility: 5 miles ( 8 km)
Ceiling: at least 12,000 feet AGL
Clouds: sky clear below 12,000 feet AGL
Weather: no significant weather observed at this time

METAR text: WIBB 181330Z 00000KT 8000 FEW016 25/24 Q1009
Conditions at: WIBB (PAKANBARU/SIMPAN, ID) observed 1330 UTC 18 January 2019
Temperature: 25.0°C (77°F)
Dewpoint: 24.0°C (75°F) [RH = 94%]
Pressure (altimeter): 29.79 inches Hg (1009.0 mb)
Winds: calm
Visibility: 5 miles ( 8 km)
Ceiling: at least 12,000 feet AGL
Clouds: few clouds at 1600 feet AGL
Weather: no significant weather observed at this time

METAR text: WIBB 181300Z 00000KT 8000 FEW016 25/24 Q1008
Conditions at: WIBB (PAKANBARU/SIMPAN, ID) observed 1300 UTC 18 January 2019
Temperature: 25.0°C (77°F)
Dewpoint: 24.0°C (75°F) [RH = 94%]
Pressure (altimeter): 29.76 inches Hg (1008.0 mb)
Winds: calm
Visibility: 5 miles ( 8 km)
Ceiling: at least 12,000 feet AGL
Clouds: few clouds at 1600 feet AGL
Weather: no significant weather observed at this time

METAR text: WIBB 181230Z 00000KT 8000 FEW015 26/24 Q1008
Conditions at: WIBB (PAKANBARU/SIMPAN, ID) observed 1230 UTC 18 January 2019
Temperature: 26.0°C (79°F)
Dewpoint: 24.0°C (75°F) [RH = 89%]
Pressure (altimeter): 29.76 inches Hg (1008.0 mb)
Winds: calm
Visibility: 5 miles ( 8 km)
Ceiling: at least 12,000 feet AGL
Clouds: few clouds at 1500 feet AGL
Weather: no significant weather observed at this time

METAR text: WIBB 181200Z 00000KT 8000 FEW015 26/24 Q1008
Conditions at: WIBB (PAKANBARU/SIMPAN, ID) observed 1200 UTC 18 January 2019
Temperature: 26.0°C (79°F)
Dewpoint: 24.0°C (75°F) [RH = 89%]
Pressure (altimeter): 29.76 inches Hg (1008.0 mb)
Winds: calm
Visibility: 5 miles ( 8 km)
Ceiling: at least 12,000 feet AGL
Clouds: few clouds at 1500 feet AGL
Weather: no significant weather observed at this time

METAR text: WIBB 181130Z 00000KT 8000 SCT013 26/25 Q1007
Conditions at: WIBB (PAKANBARU/SIMPAN, ID) observed 1130 UTC 18 January 2019
Temperature: 26.0°C (79°F)
Dewpoint: 25.0°C (77°F) [RH = 94%]
Pressure (altimeter): 29.73 inches Hg (1007.0 mb)
Winds: calm
Visibility: 5 miles ( 8 km)
Ceiling: at least 12,000 feet AGL
Clouds: scattered clouds at 1300 feet AGL
Weather: no significant weather observed at this time

METAR text: WIBB 181100Z 00000KT 9999 SCT013 27/25 Q1007
Conditions at: WIBB (PAKANBARU/SIMPAN, ID) observed 1100 UTC 18 January 2019
Temperature: 27.0°C (81°F)
Dewpoint: 25.0°C (77°F) [RH = 89%]
Pressure (altimeter): 29.73 inches Hg (1007.0 mb)
Winds: calm
Visibility: 6 or more miles (10+ km)
Ceiling: at least 12,000 feet AGL
Clouds: scattered clouds at 1300 feet AGL
Weather: no significant weather observed at this time

METAR text: WIBB 181030Z 00000KT 9999 FEW013 27/25 Q1006
Conditions at: WIBB (PAKANBARU/SIMPAN, ID) observed 1030 UTC 18 January 2019
Temperature: 27.0°C (81°F)
Dewpoint: 25.0°C (77°F) [RH = 89%]
Pressure (altimeter): 29.70 inches Hg (1006.0 mb)
Winds: calm
Visibility: 6 or more miles (10+ km)
Ceiling: at least 12,000 feet AGL
Clouds: few clouds at 1300 feet AGL
Weather: no significant weather observed at this time

METAR text: WIBB 181000Z 00000KT 9999 FEW013 27/24 Q1006
Conditions at: WIBB (PAKANBARU/SIMPAN, ID) observed 1000 UTC 18 January 2019
Temperature: 27.0°C (81°F)
Dewpoint: 24.0°C (75°F) [RH = 84%]
Pressure (altimeter): 29.70 inches Hg (1006.0 mb)
Winds: calm
Visibility: 6 or more miles (10+ km)
Ceiling: at least 12,000 feet AGL
Clouds: few clouds at 1300 feet AGL
Weather: no significant weather observed at this time

METAR text: WIBB 180930Z 00000KT 9999 FEW013 26/25 Q1006
Conditions at: WIBB (PAKANBARU/SIMPAN, ID) observed 0930 UTC 18 January 2019
Temperature: 26.0°C (79°F)
Dewpoint: 25.0°C (77°F) [RH = 94%]
Pressure (altimeter): 29.70 inches Hg (1006.0 mb)
Winds: calm
Visibility: 6 or more miles (10+ km)
Ceiling: at least 12,000 feet AGL
Clouds: few clouds at 1300 feet AGL
Weather: no significant weather observed at this time

METAR text: WIBB 180900Z 30005KT 8000 FEW013 26/24 Q1006
Conditions at: WIBB (PAKANBARU/SIMPAN, ID) observed 0900 UTC 18 January 2019
Temperature: 26.0°C (79°F)
Dewpoint: 24.0°C (75°F) [RH = 89%]
Pressure (altimeter): 29.70 inches Hg (1006.0 mb)
Winds: from the WNW (300 degrees) at 6 MPH (5 knots; 2.6 m/s)
Visibility: 5 miles ( 8 km)
Ceiling: at least 12,000 feet AGL
Clouds: few clouds at 1300 feet AGL
Weather: no significant weather observed at this time

METAR text: WIBB 180830Z 30005KT 8000 -RA BKN012 26/25 Q1006
Conditions at: WIBB (PAKANBARU/SIMPAN, ID) observed 0830 UTC 18 January 2019
Temperature: 26.0°C (79°F)
Dewpoint: 25.0°C (77°F) [RH = 94%]
Pressure (altimeter): 29.70 inches Hg (1006.0 mb)
Winds: from the WNW (300 degrees) at 6 MPH (5 knots; 2.6 m/s)
Visibility: 5 miles ( 8 km)
Ceiling: 1200 feet AGL
Clouds: broken clouds at 1200 feet AGL
Weather: -RA  (light rain)

METAR text: WIBB 180800Z 01008KT 5000 -RA BKN012 26/24 Q1007
Conditions at: WIBB (PAKANBARU/SIMPAN, ID) observed 0800 UTC 18 January 2019
Temperature: 26.0°C (79°F)
Dewpoint: 24.0°C (75°F) [RH = 89%]
Pressure (altimeter): 29.73 inches Hg (1007.0 mb)
Winds: from the N (10 degrees) at 9 MPH (8 knots; 4.1 m/s)
Visibility: 3 miles ( 5 km)
Ceiling: 1200 feet AGL
Clouds: broken clouds at 1200 feet AGL
Weather: -RA  (light rain)

METAR text: WIBB 180730Z 33006KT 6000 -RA SCT010 FEW015CB 26/24 Q1007
Conditions at: WIBB (PAKANBARU/SIMPAN, ID) observed 0730 UTC 18 January 2019
Temperature: 26.0°C (79°F)
Dewpoint: 24.0°C (75°F) [RH = 89%]
Pressure (altimeter): 29.73 inches Hg (1007.0 mb)
Winds: from the NNW (330 degrees) at 7 MPH (6 knots; 3.1 m/s)
Visibility: 4 miles ( 6 km)
Ceiling: at least 12,000 feet AGL
Clouds: scattered clouds at 1000 feet AGL
few clouds at 1500 feet AGL
Weather: -RA  (light rain)

METAR text: WIBB 180700Z 08005KT 7000 SCT013 FEW015CB 26/24 Q1008
Conditions at: WIBB (PAKANBARU/SIMPAN, ID) observed 0700 UTC 18 January 2019
Temperature: 26.0°C (79°F)
Dewpoint: 24.0°C (75°F) [RH = 89%]
Pressure (altimeter): 29.76 inches Hg (1008.0 mb)
Winds: from the E (80 degrees) at 6 MPH (5 knots; 2.6 m/s)
Visibility: 4 miles ( 7 km)
Ceiling: at least 12,000 feet AGL
Clouds: scattered clouds at 1300 feet AGL
few clouds at 1500 feet AGL
Weather: no significant weather observed at this time

METAR text: WIBB 180630Z 31005KT 6000 -RA SCT013 FEW015CB 26/25 Q1008
Conditions at: WIBB (PAKANBARU/SIMPAN, ID) observed 0630 UTC 18 January 2019
Temperature: 26.0°C (79°F)
Dewpoint: 25.0°C (77°F) [RH = 94%]
Pressure (altimeter): 29.76 inches Hg (1008.0 mb)
Winds: from the NW (310 degrees) at 6 MPH (5 knots; 2.6 m/s)
Visibility: 4 miles ( 6 km)
Ceiling: at least 12,000 feet AGL
Clouds: scattered clouds at 1300 feet AGL
few clouds at 1500 feet AGL
Weather: -RA  (light rain)

METAR text: WIBB 180600Z 01005KT 8000 SCT013 FEW015CB 28/24 Q1008
Conditions at: WIBB (PAKANBARU/SIMPAN, ID) observed 0600 UTC 18 January 2019
Temperature: 28.0°C (82°F)
Dewpoint: 24.0°C (75°F) [RH = 79%]
Pressure (altimeter): 29.76 inches Hg (1008.0 mb)
Winds: from the N (10 degrees) at 6 MPH (5 knots; 2.6 m/s)
Visibility: 5 miles ( 8 km)
Ceiling: at least 12,000 feet AGL
Clouds: scattered clouds at 1300 feet AGL
few clouds at 1500 feet AGL
Weather: no significant weather observed at this time

METAR text: WIBB 180530Z 05006KT 8000 -RA SCT013 FEW015CB 27/24 Q1009
Conditions at: WIBB (PAKANBARU/SIMPAN, ID) observed 0530 UTC 18 January 2019
Temperature: 27.0°C (81°F)
Dewpoint: 24.0°C (75°F) [RH = 84%]
Pressure (altimeter): 29.79 inches Hg (1009.0 mb)
Winds: from the NE (50 degrees) at 7 MPH (6 knots; 3.1 m/s)
Visibility: 5 miles ( 8 km)
Ceiling: at least 12,000 feet AGL
Clouds: scattered clouds at 1300 feet AGL
few clouds at 1500 feet AGL
Weather: -RA  (light rain)

METAR text: WIBB 180500Z 05005KT 8000 BKN015 28/23 Q1009
Conditions at: WIBB (PAKANBARU/SIMPAN, ID) observed 0500 UTC 18 January 2019
Temperature: 28.0°C (82°F)
Dewpoint: 23.0°C (73°F) [RH = 74%]
Pressure (altimeter): 29.79 inches Hg (1009.0 mb)
Winds: from the NE (50 degrees) at 6 MPH (5 knots; 2.6 m/s)
Visibility: 5 miles ( 8 km)
Ceiling: 1500 feet AGL
Clouds: broken clouds at 1500 feet AGL
Weather: no significant weather observed at this time

METAR text: WIBB 180430Z 04005KT 8000 BKN012 28/23 Q1010
Conditions at: WIBB (PAKANBARU/SIMPAN, ID) observed 0430 UTC 18 January 2019
Temperature: 28.0°C (82°F)
Dewpoint: 23.0°C (73°F) [RH = 74%]
Pressure (altimeter): 29.82 inches Hg (1010.0 mb)
Winds: from the NE (40 degrees) at 6 MPH (5 knots; 2.6 m/s)
Visibility: 5 miles ( 8 km)
Ceiling: 1200 feet AGL
Clouds: broken clouds at 1200 feet AGL
Weather: no significant weather observed at this time

METAR text: WIBB 180400Z 06007KT 8000 BKN012 28/23 Q1010
Conditions at: WIBB (PAKANBARU/SIMPAN, ID) observed 0400 UTC 18 January 2019
Temperature: 28.0°C (82°F)
Dewpoint: 23.0°C (73°F) [RH = 74%]
Pressure (altimeter): 29.82 inches Hg (1010.0 mb)
Winds: from the ENE (60 degrees) at 8 MPH (7 knots; 3.6 m/s)
Visibility: 5 miles ( 8 km)
Ceiling: 1200 feet AGL
Clouds: broken clouds at 1200 feet AGL
Weather: no significant weather observed at this time

METAR text: WIBB 180300Z 05007KT 8000 BKN012 27/24 Q1011
Conditions at: WIBB (PAKANBARU/SIMPAN, ID) observed 0300 UTC 18 January 2019
Temperature: 27.0°C (81°F)
Dewpoint: 24.0°C (75°F) [RH = 84%]
Pressure (altimeter): 29.85 inches Hg (1011.0 mb)
Winds: from the NE (50 degrees) at 8 MPH (7 knots; 3.6 m/s)
Visibility: 5 miles ( 8 km)
Ceiling: 1200 feet AGL
Clouds: broken clouds at 1200 feet AGL
Weather: no significant weather observed at this time

METAR text: WIBB 180230Z 04007KT 8000 BKN012 27/23 Q1011
Conditions at: WIBB (PAKANBARU/SIMPAN, ID) observed 0230 UTC 18 January 2019
Temperature: 27.0°C (81°F)
Dewpoint: 23.0°C (73°F) [RH = 79%]
Pressure (altimeter): 29.85 inches Hg (1011.0 mb)
Winds: from the NE (40 degrees) at 8 MPH (7 knots; 3.6 m/s)
Visibility: 5 miles ( 8 km)
Ceiling: 1200 feet AGL
Clouds: broken clouds at 1200 feet AGL
Weather: no significant weather observed at this time

METAR text: WIBB 180200Z 02007KT 8000 SCT010 26/23 Q1010
Conditions at: WIBB (PAKANBARU/SIMPAN, ID) observed 0200 UTC 18 January 2019
Temperature: 26.0°C (79°F)
Dewpoint: 23.0°C (73°F) [RH = 84%]
Pressure (altimeter): 29.82 inches Hg (1010.0 mb)
Winds: from the NNE (20 degrees) at 8 MPH (7 knots; 3.6 m/s)
Visibility: 5 miles ( 8 km)
Ceiling: at least 12,000 feet AGL
Clouds: scattered clouds at 1000 feet AGL
Weather: no significant weather observed at this time

METAR text: WIBB 180130Z 03005KT 7000 SCT010 26/23 Q1010
Conditions at: WIBB (PAKANBARU/SIMPAN, ID) observed 0130 UTC 18 January 2019
Temperature: 26.0°C (79°F)
Dewpoint: 23.0°C (73°F) [RH = 84%]
Pressure (altimeter): 29.82 inches Hg (1010.0 mb)
Winds: from the NNE (30 degrees) at 6 MPH (5 knots; 2.6 m/s)
Visibility: 4 miles ( 7 km)
Ceiling: at least 12,000 feet AGL
Clouds: scattered clouds at 1000 feet AGL
Weather: no significant weather observed at this time

METAR text: WIBB 180100Z 02005KT 7000 SCT010 26/23 Q1010
Conditions at: WIBB (PAKANBARU/SIMPAN, ID) observed 0100 UTC 18 January 2019
Temperature: 26.0°C (79°F)
Dewpoint: 23.0°C (73°F) [RH = 84%]
Pressure (altimeter): 29.82 inches Hg (1010.0 mb)
Winds: from the NNE (20 degrees) at 6 MPH (5 knots; 2.6 m/s)
Visibility: 4 miles ( 7 km)
Ceiling: at least 12,000 feet AGL
Clouds: scattered clouds at 1000 feet AGL
Weather: no significant weather observed at this time